Time;durP1;ratioP1;P1;durP2;ratioP2;P2;SDS_P1;SDS_P2;PMS_P1;PMS_P2;Temp;Humidity;BMP_temperature;BMP_pressure;BME280_temperature;BME280_humidity;BME280_pressure;Samples;Min_cycle;Max_cycle;Signal;HPM_P1;HPM_P2
2022/01/07 00:01:03;;;;;;;9.80;4.07;;;3.00;99.90;;;;;;5112489;28;20168;-45
2022/01/07 00:03:29;;;;;;;11.13;4.47;;;3.00;99.90;;;;;;5112737;28;20257;-45
2022/01/07 00:05:55;;;;;;;9.45;4.03;;;3.00;99.90;;;;;;5112721;28;20173;-44
2022/01/07 00:08:20;;;;;;;10.43;4.22;;;3.00;99.90;;;;;;5112694;28;20664;-45
2022/01/07 00:10:46;;;;;;;11.25;4.78;;;3.00;99.90;;;;;;5112407;28;20724;-45
2022/01/07 00:13:12;;;;;;;7.63;3.65;;;3.10;99.90;;;;;;5112223;28;20208;-45
2022/01/07 00:15:39;;;;;;;10.55;4.78;;;3.10;99.90;;;;;;5112404;28;20168;-45
2022/01/07 00:18:06;;;;;;;8.63;3.83;;;3.10;99.90;;;;;;5112367;28;20169;-45
2022/01/07 00:20:31;;;;;;;8.98;3.95;;;3.10;99.90;;;;;;5094307;28;20172;-45
2022/01/07 00:22:57;;;;;;;12.18;3.70;;;3.10;99.90;;;;;;5116820;28;20165;-46
2022/01/07 00:25:24;;;;;;;8.10;4.45;;;3.20;99.90;;;;;;5116453;28;20169;-45
2022/01/07 00:27:51;;;;;;;8.93;4.30;;;3.20;99.90;;;;;;5116405;28;20172;-45
2022/01/07 00:30:19;;;;;;;14.15;4.03;;;3.20;99.90;;;;;;5116332;28;20211;-45
2022/01/07 00:32:45;;;;;;;9.48;4.00;;;3.20;99.90;;;;;;5116278;28;20704;-45
2022/01/07 00:35:13;;;;;;;10.43;4.20;;;3.20;99.90;;;;;;5116563;28;20217;-45
2022/01/07 00:37:40;;;;;;;10.80;3.70;;;3.20;99.90;;;;;;5116300;28;20251;-45
2022/01/07 00:40:08;;;;;;;8.82;4.00;;;3.30;99.90;;;;;;5116193;28;20258;-47
2022/01/07 00:42:33;;;;;;;11.85;4.13;;;3.30;99.90;;;;;;5116070;28;20177;-46
2022/01/07 00:44:59;;;;;;;7.30;3.65;;;3.30;99.90;;;;;;5116107;28;20157;-45
2022/01/07 00:47:25;;;;;;;12.75;4.07;;;3.40;99.90;;;;;;5116493;28;20172;-46
2022/01/07 00:49:51;;;;;;;10.45;4.10;;;3.40;99.90;;;;;;5115959;28;20169;-46
2022/01/07 00:52:16;;;;;;;6.43;3.90;;;3.50;99.90;;;;;;5116031;28;20179;-46
2022/01/07 00:54:42;;;;;;;8.38;4.10;;;3.40;99.90;;;;;;5115892;28;20625;-47
2022/01/07 00:57:08;;;;;;;9.38;4.40;;;3.40;99.90;;;;;;5116115;28;20177;-46
2022/01/07 00:59:34;;;;;;;9.82;4.18;;;3.40;99.90;;;;;;5115821;28;20172;-47
2022/01/07 01:01:59;;;;;;;6.43;3.95;;;3.50;99.90;;;;;;5115803;28;20171;-46
2022/01/07 01:04:25;;;;;;;6.30;3.22;;;3.50;99.90;;;;;;5116109;28;20530;-47
2022/01/07 01:06:50;;;;;;;7.93;4.10;;;3.50;99.90;;;;;;5115635;28;20180;-47
2022/01/07 01:09:16;;;;;;;7.57;3.92;;;3.50;99.90;;;;;;5115641;28;20226;-46
2022/01/07 01:11:42;;;;;;;7.28;3.42;;;3.50;99.90;;;;;;5115458;28;20235;-45
2022/01/07 01:14:08;;;;;;;13.45;4.28;;;3.50;99.90;;;;;;5115521;28;20157;-47
2022/01/07 01:16:35;;;;;;;7.63;3.70;;;3.50;99.90;;;;;;5115663;28;20191;-46
2022/01/07 01:19:01;;;;;;;7.88;3.75;;;3.60;99.90;;;;;;5115485;28;20246;-46
2022/01/07 01:21:26;;;;;;;9.75;3.42;;;3.50;99.90;;;;;;5115738;28;20644;-47
2022/01/07 01:23:52;;;;;;;8.77;4.15;;;3.50;99.90;;;;;;5115340;28;20165;-47
2022/01/07 01:26:18;;;;;;;7.78;4.22;;;3.50;99.90;;;;;;5097178;28;21156;-46
2022/01/07 01:28:45;;;;;;;12.07;4.97;;;3.50;99.90;;;;;;5115528;28;20172;-46
2022/01/07 01:31:14;;;;;;;10.07;3.90;;;3.40;99.90;;;;;;5114898;28;20727;-46
2022/01/07 01:33:40;;;;;;;8.75;4.40;;;3.40;99.90;;;;;;5114991;28;20719;-47
2022/01/07 01:36:05;;;;;;;8.85;4.07;;;3.50;99.90;;;;;;5096915;28;20255;-46
2022/01/07 01:38:31;;;;;;;7.97;3.83;;;3.50;99.90;;;;;;5115088;28;20179;-46
2022/01/07 01:40:57;;;;;;;8.18;4.05;;;3.50;99.90;;;;;;5115301;28;20240;-45
2022/01/07 01:43:22;;;;;;;10.07;3.90;;;3.50;99.90;;;;;;5114981;28;20655;-45
2022/01/07 01:45:48;;;;;;;19.77;4.47;;;3.50;99.90;;;;;;5114952;28;20169;-45
2022/01/07 01:48:14;;;;;;;9.75;3.88;;;3.50;99.90;;;;;;5114842;28;20203;-46
2022/01/07 01:50:39;;;;;;;8.85;3.83;;;3.60;99.90;;;;;;5114723;28;20230;-45
2022/01/07 01:53:05;;;;;;;10.65;4.05;;;3.50;99.90;;;;;;5114735;28;20172;-45
2022/01/07 01:55:31;;;;;;;13.07;4.65;;;3.50;99.90;;;;;;5096420;28;20255;-45
2022/01/07 01:57:57;;;;;;;10.90;4.28;;;3.50;99.90;;;;;;5114980;28;20160;-45
2022/01/07 02:00:25;;;;;;;6.80;4.13;;;3.40;99.90;;;;;;5096366;28;20229;-45
2022/01/07 02:02:50;;;;;;;8.48;4.30;;;3.50;99.90;;;;;;5114464;28;20168;-45
2022/01/07 02:05:16;;;;;;;8.50;3.90;;;3.50;99.90;;;;;;5114516;28;20175;-45
2022/01/07 02:07:42;;;;;;;9.50;4.70;;;3.50;99.90;;;;;;5114583;28;20187;-46
2022/01/07 02:10:13;;;;;;;7.45;4.47;;;3.50;99.90;;;;;;5114616;28;20168;-45
2022/01/07 02:12:40;;;;;;;5.85;3.95;;;3.40;99.90;;;;;;5114258;28;20216;-45
2022/01/07 02:15:07;;;;;;;6.78;3.58;;;3.50;99.90;;;;;;5114404;28;20240;-46
2022/01/07 02:17:32;;;;;;;9.23;4.00;;;3.50;99.90;;;;;;5114222;28;20177;-45
2022/01/07 02:19:58;;;;;;;13.18;4.57;;;3.40;99.90;;;;;;5114484;28;20165;-45
2022/01/07 02:22:24;;;;;;;10.52;4.75;;;3.40;99.90;;;;;;5114422;28;20180;-45
2022/01/07 02:24:51;;;;;;;11.15;5.00;;;3.40;99.90;;;;;;5114181;28;20182;-45
2022/01/07 02:27:18;;;;;;;7.78;3.75;;;3.50;99.90;;;;;;5114391;28;20280;-46
2022/01/07 02:29:46;;;;;;;8.60;4.38;;;3.40;99.90;;;;;;5114036;28;20277;-46
2022/01/07 02:32:12;;;;;;;12.80;4.32;;;3.50;99.90;;;;;;5113946;28;20296;-45
2022/01/07 02:34:37;;;;;;;8.15;4.60;;;3.40;99.90;;;;;;5114202;28;20202;-45
2022/01/07 02:37:04;;;;;;;11.60;4.32;;;3.40;99.90;;;;;;5113933;28;20168;-45
2022/01/07 02:39:29;;;;;;;8.82;4.65;;;3.50;99.90;;;;;;5113860;28;20520;-46
2022/01/07 02:41:55;;;;;;;13.82;5.45;;;3.50;99.90;;;;;;5114102;28;20160;-46
2022/01/07 02:44:21;;;;;;;7.15;4.40;;;3.60;99.90;;;;;;5112944;28;20204;-45
2022/01/07 02:46:47;;;;;;;9.90;4.47;;;3.70;99.90;;;;;;5113748;28;20165;-45
2022/01/07 02:49:16;;;;;;;10.52;5.20;;;3.60;99.90;;;;;;5113711;28;20675;-46
2022/01/07 02:51:42;;;;;;;9.50;4.97;;;3.70;99.90;;;;;;5113519;28;20203;-45
2022/01/07 02:54:08;;;;;;;11.73;5.90;;;3.70;99.90;;;;;;5113576;28;20161;-46
2022/01/07 02:56:35;;;;;;;11.43;5.53;;;3.70;99.90;;;;;;5113498;28;20200;-45
2022/01/07 02:59:01;;;;;;;13.13;5.65;;;3.70;99.90;;;;;;5113632;28;20161;-45
2022/01/07 03:01:26;;;;;;;8.15;4.63;;;3.60;99.90;;;;;;5113777;28;20263;-45
2022/01/07 03:03:52;;;;;;;6.57;3.50;;;3.60;99.90;;;;;;5113426;28;20175;-45
2022/01/07 03:06:19;;;;;;;8.25;4.00;;;3.60;99.90;;;;;;5113308;28;20199;-46
2022/01/07 03:08:46;;;;;;;11.95;4.40;;;3.50;99.90;;;;;;5113578;28;20176;-45
2022/01/07 03:11:12;;;;;;;8.20;5.03;;;3.40;99.90;;;;;;5113200;28;20200;-45
2022/01/07 03:13:37;;;;;;;10.55;4.50;;;3.50;99.90;;;;;;5113219;28;20183;-46
2022/01/07 03:16:03;;;;;;;9.57;4.28;;;3.40;99.90;;;;;;5113109;28;20172;-46
2022/01/07 03:18:28;;;;;;;9.68;4.15;;;3.40;99.90;;;;;;5113030;28;20183;-45
2022/01/07 03:20:54;;;;;;;8.57;4.60;;;3.30;99.90;;;;;;5113526;28;20254;-46
2022/01/07 03:23:20;;;;;;;13.23;4.05;;;3.40;99.90;;;;;;5094814;28;20172;-46
2022/01/07 03:25:46;;;;;;;7.53;4.68;;;3.30;99.90;;;;;;5112946;28;20165;-47
2022/01/07 03:28:12;;;;;;;6.60;4.00;;;3.40;99.90;;;;;;5113197;28;20256;-47
2022/01/07 03:30:38;;;;;;;8.38;3.72;;;3.50;99.90;;;;;;5113076;28;20208;-47
2022/01/07 03:33:05;;;;;;;7.07;3.75;;;3.40;99.90;;;;;;5112950;28;20177;-46
2022/01/07 03:35:31;;;;;;;9.30;3.70;;;3.40;99.90;;;;;;5113065;28;20176;-46
2022/01/07 03:37:57;;;;;;;6.43;3.22;;;3.40;99.90;;;;;;5113079;28;20228;-47
2022/01/07 03:40:23;;;;;;;10.65;4.97;;;3.40;99.90;;;;;;5112823;28;20239;-46
2022/01/07 03:42:50;;;;;;;7.70;3.70;;;3.50;99.90;;;;;;5112778;28;20175;-46
2022/01/07 03:45:18;;;;;;;11.07;3.50;;;3.50;99.90;;;;;;5112778;28;20191;-47
2022/01/07 03:47:44;;;;;;;13.20;5.05;;;3.50;99.90;;;;;;5112667;28;20364;-46
2022/01/07 03:50:13;;;;;;;6.78;3.35;;;3.50;99.90;;;;;;5112513;28;20164;-45
2022/01/07 03:52:39;;;;;;;9.18;3.17;;;3.50;99.90;;;;;;5112516;28;20179;-45
2022/01/07 03:55:07;;;;;;;6.00;2.75;;;3.60;99.90;;;;;;5112481;28;20165;-45
2022/01/07 03:57:32;;;;;;;5.00;2.85;;;3.60;99.90;;;;;;5112541;28;20165;-46
2022/01/07 03:59:58;;;;;;;6.10;2.67;;;3.70;99.90;;;;;;5112843;28;20171;-44
2022/01/07 04:02:24;;;;;;;12.63;5.10;;;3.70;99.90;;;;;;5112898;28;20164;-45
2022/01/07 04:04:49;;;;;;;9.98;3.15;;;3.70;99.90;;;;;;5112458;28;20157;-45
2022/01/07 04:07:15;;;;;;;3.97;2.40;;;3.70;99.90;;;;;;5112711;28;20168;-46
2022/01/07 04:09:41;;;;;;;15.35;3.17;;;3.70;99.90;;;;;;5112456;28;20165;-46
2022/01/07 04:12:07;;;;;;;5.88;2.80;;;3.70;99.90;;;;;;5112289;28;20221;-45
2022/01/07 04:14:32;;;;;;;5.75;3.30;;;3.70;99.90;;;;;;5112370;28;20176;-45
2022/01/07 04:16:59;;;;;;;7.53;3.33;;;3.70;99.90;;;;;;5112633;28;20176;-45
2022/01/07 04:19:26;;;;;;;9.45;3.05;;;3.80;99.90;;;;;;5112899;28;20165;-45
2022/01/07 04:21:51;;;;;;;3.70;2.80;;;3.80;99.90;;;;;;5112315;28;20169;-46
2022/01/07 04:24:18;;;;;;;8.35;4.07;;;3.70;99.90;;;;;;5112302;28;20220;-45
2022/01/07 04:26:43;;;;;;;6.50;2.92;;;3.80;99.90;;;;;;5112511;28;20165;-45
2022/01/07 04:29:09;;;;;;;13.73;3.65;;;3.80;99.90;;;;;;5112593;28;20176;-46
2022/01/07 04:31:35;;;;;;;4.18;2.58;;;3.80;99.90;;;;;;5112258;28;20677;-45
2022/01/07 04:34:01;;;;;;;6.90;3.08;;;3.80;99.90;;;;;;5112266;28;20173;-45
2022/01/07 04:36:26;;;;;;;7.03;3.80;;;3.80;99.90;;;;;;5112432;28;20172;-46
2022/01/07 04:38:52;;;;;;;9.73;3.50;;;3.80;99.90;;;;;;5112024;28;20245;-45
2022/01/07 04:41:17;;;;;;;6.40;2.83;;;3.70;99.90;;;;;;5112183;28;21258;-45
2022/01/07 04:43:43;;;;;;;7.90;2.85;;;3.70;99.90;;;;;;5112154;28;20238;-45
2022/01/07 04:46:09;;;;;;;5.32;3.15;;;3.80;99.90;;;;;;5112046;28;20176;-46
2022/01/07 04:48:34;;;;;;;6.47;3.17;;;3.90;99.90;;;;;;5112062;28;20171;-47
2022/01/07 04:51:00;;;;;;;11.48;3.25;;;3.80;99.90;;;;;;5111710;28;20253;-45
2022/01/07 04:53:26;;;;;;;14.63;3.70;;;3.90;99.90;;;;;;5112092;28;20176;-46
2022/01/07 04:55:53;;;;;;;8.52;2.90;;;3.90;99.90;;;;;;5111861;28;20292;-47
2022/01/07 04:58:19;;;;;;;5.47;2.97;;;3.90;99.90;;;;;;5111968;28;20609;-46
2022/01/07 05:00:45;;;;;;;8.77;3.72;;;3.90;99.90;;;;;;5112086;28;20176;-45
2022/01/07 05:03:11;;;;;;;8.60;4.50;;;4.00;99.90;;;;;;5111918;28;20532;-45
2022/01/07 05:05:36;;;;;;;8.30;4.05;;;4.00;99.90;;;;;;5111984;28;20612;-45
2022/01/07 05:08:03;;;;;;;8.93;3.13;;;4.10;99.90;;;;;;5114559;28;20183;-45
2022/01/07 05:10:29;;;;;;;7.78;3.38;;;4.10;99.90;;;;;;5115541;28;20188;-44
2022/01/07 05:12:55;;;;;;;4.47;2.53;;;4.10;99.90;;;;;;5115765;28;20243;-46
2022/01/07 05:15:22;;;;;;;7.47;2.13;;;4.20;99.90;;;;;;5115557;28;20164;-45
2022/01/07 05:17:48;;;;;;;12.02;2.55;;;4.20;99.90;;;;;;5115461;28;20204;-46
2022/01/07 05:20:15;;;;;;;7.65;2.50;;;4.20;99.90;;;;;;5115493;28;20156;-46
2022/01/07 05:22:41;;;;;;;5.75;2.38;;;4.20;99.90;;;;;;5115631;28;20337;-47
2022/01/07 05:25:09;;;;;;;7.53;2.00;;;4.20;99.90;;;;;;5115565;28;20177;-46
2022/01/07 05:27:34;;;;;;;8.48;2.40;;;4.30;99.90;;;;;;5115309;28;20168;-46
2022/01/07 05:30:00;;;;;;;5.22;1.80;;;4.30;99.90;;;;;;5115083;28;20217;-46
2022/01/07 05:32:25;;;;;;;2.85;1.67;;;4.30;99.90;;;;;;5115587;28;20208;-46
2022/01/07 05:34:51;;;;;;;1.52;1.17;;;4.40;99.90;;;;;;5115056;28;20165;-47
2022/01/07 05:37:17;;;;;;;6.38;1.98;;;4.40;99.90;;;;;;5096888;28;20260;-46
2022/01/07 05:39:42;;;;;;;6.57;1.80;;;4.40;99.90;;;;;;5114899;28;20197;-47
2022/01/07 05:42:08;;;;;;;5.45;1.58;;;4.40;99.90;;;;;;5115077;28;20203;-47
2022/01/07 05:44:33;;;;;;;3.35;1.02;;;4.40;99.90;;;;;;5115024;28;20165;-46
2022/01/07 05:46:59;;;;;;;1.50;1.10;;;4.40;99.90;;;;;;5115150;28;20168;-46
2022/01/07 05:49:25;;;;;;;7.15;1.85;;;4.40;99.90;;;;;;5115164;28;20518;-45
2022/01/07 05:51:50;;;;;;;1.70;1.33;;;4.40;99.90;;;;;;5114769;28;20212;-46
2022/01/07 05:54:16;;;;;;;4.20;1.52;;;4.40;99.90;;;;;;5114957;28;20160;-46
2022/01/07 05:56:41;;;;;;;3.47;1.30;;;4.30;99.90;;;;;;5114948;28;20337;-46
2022/01/07 05:59:07;;;;;;;8.40;1.85;;;4.40;99.90;;;;;;5114764;28;20628;-47
2022/01/07 06:01:32;;;;;;;3.58;1.60;;;4.20;99.90;;;;;;5114579;28;20200;-46
2022/01/07 06:03:58;;;;;;;3.15;1.52;;;4.20;99.90;;;;;;5114868;28;20251;-46
2022/01/07 06:06:23;;;;;;;3.40;1.73;;;4.30;99.90;;;;;;5114858;28;20172;-45
2022/01/07 06:08:49;;;;;;;2.80;1.15;;;4.20;99.90;;;;;;5114516;28;20192;-46
2022/01/07 06:11:15;;;;;;;4.57;1.40;;;4.30;99.90;;;;;;5114218;28;20212;-47
2022/01/07 06:13:40;;;;;;;1.10;1.00;;;4.30;99.90;;;;;;5096097;28;20177;-46
2022/01/07 06:16:06;;;;;;;1.77;0.98;;;4.30;99.90;;;;;;5114638;28;20172;-47
2022/01/07 06:18:32;;;;;;;1.42;1.33;;;4.20;99.90;;;;;;5113209;28;20191;-48
2022/01/07 06:20:58;;;;;;;3.25;1.33;;;4.30;99.90;;;;;;5114609;28;20573;-46
2022/01/07 06:23:23;;;;;;;3.03;2.13;;;4.30;99.90;;;;;;5114239;28;20252;-47
2022/01/07 06:25:49;;;;;;;3.08;1.33;;;4.30;99.90;;;;;;5114104;28;20165;-46
2022/01/07 06:28:16;;;;;;;1.70;1.10;;;4.30;99.90;;;;;;5114357;28;20180;-47
2022/01/07 06:30:42;;;;;;;4.93;1.30;;;4.30;99.90;;;;;;5095617;28;20196;-48
2022/01/07 06:33:08;;;;;;;1.58;1.00;;;4.30;99.90;;;;;;5114073;28;20175;-46
2022/01/07 06:35:33;;;;;;;3.88;1.60;;;4.40;99.90;;;;;;5114209;28;20251;-46
2022/01/07 06:37:59;;;;;;;2.67;1.25;;;4.30;99.90;;;;;;5113864;28;20183;-45
2022/01/07 06:40:25;;;;;;;3.13;1.58;;;4.30;99.90;;;;;;5114172;28;20172;-45
2022/01/07 06:42:50;;;;;;;3.47;1.30;;;4.30;99.90;;;;;;5113812;28;20532;-46
2022/01/07 06:45:16;;;;;;;2.40;1.50;;;4.30;99.90;;;;;;5113786;28;20183;-47
2022/01/07 06:47:42;;;;;;;7.13;2.05;;;4.30;99.90;;;;;;5113743;28;20164;-46
2022/01/07 06:50:07;;;;;;;4.70;2.00;;;4.40;99.90;;;;;;5113419;28;20172;-46
2022/01/07 06:52:33;;;;;;;4.40;1.42;;;4.40;99.90;;;;;;5113758;28;20172;-46
2022/01/07 06:54:59;;;;;;;3.95;1.58;;;4.40;99.90;;;;;;5095190;28;20624;-47
2022/01/07 06:57:24;;;;;;;3.85;1.70;;;4.40;99.90;;;;;;5113835;28;20639;-46
2022/01/07 06:59:50;;;;;;;6.22;1.63;;;4.40;99.90;;;;;;5113431;28;20632;-46
2022/01/07 07:02:16;;;;;;;3.25;1.98;;;4.40;99.90;;;;;;5113568;28;20652;-47
2022/01/07 07:04:41;;;;;;;4.72;1.73;;;4.50;99.90;;;;;;5113339;28;20168;-47
2022/01/07 07:07:07;;;;;;;3.58;1.27;;;4.40;99.90;;;;;;5113572;28;20164;-47
2022/01/07 07:09:33;;;;;;;4.95;1.23;;;4.40;99.90;;;;;;5113230;28;20169;-48
2022/01/07 07:11:58;;;;;;;1.83;1.15;;;4.50;99.90;;;;;;5113156;28;20303;-46
2022/01/07 07:14:24;;;;;;;5.80;1.95;;;4.40;99.90;;;;;;5113490;28;20658;-46
2022/01/07 07:16:49;;;;;;;2.72;1.20;;;4.50;99.90;;;;;;5094856;28;20172;-47
2022/01/07 07:19:15;;;;;;;2.53;1.30;;;4.50;99.90;;;;;;5113124;28;20165;-46
2022/01/07 07:21:41;;;;;;;3.83;1.45;;;4.40;99.90;;;;;;5113142;28;20174;-47
2022/01/07 07:24:06;;;;;;;2.85;1.08;;;4.50;99.90;;;;;;5112978;28;20191;-47
2022/01/07 07:26:32;;;;;;;5.22;2.25;;;4.40;99.90;;;;;;5112992;28;20176;-47
2022/01/07 07:28:58;;;;;;;5.50;1.77;;;4.50;99.90;;;;;;5113249;28;20161;-47
2022/01/07 07:31:23;;;;;;;2.00;1.80;;;4.40;99.90;;;;;;5112795;28;20200;-47
2022/01/07 07:36:27;;;;;;;3.55;1.55;;;4.40;99.90;;;;;;5113166;28;20169;-46
2022/01/07 07:38:53;;;;;;;3.65;1.70;;;4.50;99.90;;;;;;5113154;28;20243;-46
2022/01/07 07:41:19;;;;;;;1.83;1.33;;;4.40;99.90;;;;;;5112794;28;20168;-48
2022/01/07 07:43:47;;;;;;;1.40;1.30;;;4.40;99.90;;;;;;5112759;28;20171;-47
2022/01/07 07:46:13;;;;;;;4.43;1.38;;;4.50;99.90;;;;;;5113001;28;20183;-46
2022/01/07 07:48:39;;;;;;;4.68;1.73;;;4.40;99.90;;;;;;5112611;28;20190;-47
2022/01/07 07:51:05;;;;;;;5.70;1.23;;;4.50;99.90;;;;;;5112858;28;20553;-47
2022/01/07 07:53:30;;;;;;;1.20;1.10;;;4.50;99.90;;;;;;5112714;28;20635;-47
2022/01/07 07:55:56;;;;;;;4.75;1.52;;;4.50;99.90;;;;;;5112903;28;20218;-47
2022/01/07 07:58:23;;;;;;;3.00;1.40;;;4.60;99.90;;;;;;5112540;28;20164;-47
2022/01/07 08:00:50;;;;;;;5.03;1.27;;;4.60;99.90;;;;;;5112470;28;20179;-46
2022/01/07 08:03:16;;;;;;;1.17;0.95;;;4.60;99.90;;;;;;5112513;28;20644;-47
2022/01/07 08:05:41;;;;;;;1.80;0.90;;;4.60;99.90;;;;;;5112549;28;20169;-46
2022/01/07 08:08:07;;;;;;;1.27;1.10;;;4.60;99.90;;;;;;5094237;28;20176;-46
2022/01/07 08:10:33;;;;;;;3.60;1.30;;;4.60;99.90;;;;;;5112410;28;20193;-47
2022/01/07 08:18:14;;;;;;;2.80;1.23;;;4.60;99.90;;;;;;5112626;28;20699;-45
2022/01/07 08:20:40;;;;;;;3.38;1.45;;;4.60;99.90;;;;;;5112350;28;20176;-47
2022/01/07 08:23:06;;;;;;;0.88;0.88;;;4.60;99.90;;;;;;5112361;28;20199;-46
2022/01/07 08:25:32;;;;;;;2.05;0.73;;;4.60;99.90;;;;;;5112532;28;20643;-47
2022/01/07 08:28:03;;;;;;;1.40;0.90;;;4.60;99.90;;;;;;5112302;28;20213;-45
2022/01/07 08:30:35;;;;;;;1.20;0.88;;;4.70;99.90;;;;;;5112077;28;20552;-47
2022/01/07 08:35:46;;;;;;;0.88;0.65;;;4.70;99.90;;;;;;5112148;28;20216;-45
2022/01/07 08:38:12;;;;;;;3.33;1.63;;;4.70;99.90;;;;;;5112195;28;20260;-46
2022/01/07 08:40:37;;;;;;;1.55;0.95;;;4.70;99.90;;;;;;5112090;28;20168;-46
2022/01/07 08:43:03;;;;;;;1.15;1.00;;;4.80;99.90;;;;;;5114960;28;20168;-47
2022/01/07 08:45:29;;;;;;;2.03;0.63;;;4.70;99.90;;;;;;5116128;28;20168;-47
2022/01/07 08:47:54;;;;;;;2.50;1.10;;;4.70;99.90;;;;;;5116292;28;20260;-47
2022/01/07 08:50:20;;;;;;;1.13;0.75;;;4.80;99.90;;;;;;5114634;28;20172;-46
2022/01/07 08:52:46;;;;;;;1.02;0.82;;;4.80;99.90;;;;;;5114106;28;20169;-44
2022/01/07 08:55:11;;;;;;;0.60;0.57;;;4.70;99.90;;;;;;5114709;28;20540;-45
2022/01/07 08:57:37;;;;;;;1.35;0.70;;;4.80;99.90;;;;;;5129149;27;20203;-47
2022/01/07 09:00:04;;;;;;;0.85;0.73;;;4.80;99.90;;;;;;5135333;27;20168;-46
2022/01/07 09:02:30;;;;;;;0.57;0.57;;;4.80;99.90;;;;;;5116574;27;20618;-45
2022/01/07 09:04:56;;;;;;;2.17;0.85;;;4.80;99.90;;;;;;5135366;27;20204;-44
2022/01/07 09:07:21;;;;;;;1.25;1.13;;;4.80;99.90;;;;;;5134940;27;20247;-46
2022/01/07 09:09:47;;;;;;;1.15;0.80;;;4.80;99.90;;;;;;5134977;27;20259;-48
2022/01/07 09:12:12;;;;;;;0.68;0.68;;;4.80;99.90;;;;;;5134268;27;20301;-47
2022/01/07 09:14:38;;;;;;;1.60;0.88;;;4.80;99.90;;;;;;5134738;27;20229;-47
2022/01/07 09:17:04;;;;;;;1.23;0.77;;;4.80;99.90;;;;;;5134545;27;20223;-47
2022/01/07 09:19:30;;;;;;;0.50;0.50;;;4.80;99.90;;;;;;5134968;27;20168;-47
2022/01/07 09:21:58;;;;;;;1.20;1.10;;;4.80;99.90;;;;;;5134929;27;20623;-46
2022/01/07 09:24:26;;;;;;;0.70;0.50;;;4.80;99.90;;;;;;5134726;27;20224;-46
2022/01/07 09:26:53;;;;;;;0.70;0.60;;;4.80;99.90;;;;;;5134671;27;20190;-47
2022/01/07 09:29:19;;;;;;;0.75;0.75;;;4.80;99.90;;;;;;5116249;27;20204;-47
2022/01/07 09:31:44;;;;;;;2.80;0.57;;;4.80;99.90;;;;;;5113449;28;20702;-46
2022/01/07 09:34:10;;;;;;;0.90;0.90;;;4.80;99.90;;;;;;5113657;28;20157;-46
2022/01/07 09:36:35;;;;;;;1.08;0.95;;;4.80;99.90;;;;;;5113547;28;20631;-47
2022/01/07 09:39:01;;;;;;;0.77;0.75;;;4.80;99.90;;;;;;5113426;28;20725;-46
2022/01/07 09:41:27;;;;;;;1.50;0.50;;;4.80;99.90;;;;;;5114031;28;20229;-47
2022/01/07 09:43:52;;;;;;;0.60;0.60;;;4.90;99.90;;;;;;5113494;28;20172;-47
2022/01/07 09:46:18;;;;;;;1.23;1.13;;;4.80;99.90;;;;;;5110259;28;20302;-48
2022/01/07 09:48:45;;;;;;;0.57;0.57;;;4.90;99.90;;;;;;5113321;28;20176;-43
2022/01/07 09:51:13;;;;;;;0.40;0.40;;;4.90;99.90;;;;;;5112883;28;20208;-45
2022/01/07 09:53:39;;;;;;;0.95;0.50;;;4.90;99.90;;;;;;5114878;27;20168;-43
2022/01/07 09:56:04;;;;;;;0.80;0.68;;;4.90;99.90;;;;;;5133900;27;20168;-45
2022/01/07 09:58:33;;;;;;;1.10;0.65;;;4.90;99.90;;;;;;5133817;27;20647;-42
2022/01/07 10:01:04;;;;;;;5.65;0.90;;;5.00;99.90;;;;;;5134109;27;20176;-46
2022/01/07 10:03:40;;;;;;;0.73;0.70;;;5.00;99.90;;;;;;5133844;27;20176;-42
2022/01/07 10:06:21;;;;;;;1.50;0.60;;;5.00;99.90;;;;;;5134014;27;20535;-45
2022/01/07 10:09:04;;;;;;;0.70;0.70;;;5.00;99.90;;;;;;5134035;27;20160;-47
2022/01/07 10:11:30;;;;;;;0.95;0.88;;;5.10;99.90;;;;;;5133521;27;20234;-40
2022/01/07 10:14:19;;;;;;;1.25;0.82;;;5.10;99.90;;;;;;5133781;27;20530;-42
2022/01/07 10:16:56;;;;;;;1.13;0.73;;;5.20;99.90;;;;;;5133552;27;20168;-49
2022/01/07 10:19:42;;;;;;;0.70;0.60;;;5.20;99.90;;;;;;5133471;27;20155;-46
2022/01/07 10:22:12;;;;;;;1.55;0.98;;;5.30;99.90;;;;;;5133556;27;20185;-44
2022/01/07 10:24:55;;;;;;;1.25;1.02;;;5.30;99.90;;;;;;5133376;27;20164;-43
2022/01/07 10:27:22;;;;;;;1.50;1.05;;;5.30;99.90;;;;;;5133079;27;20213;-45
2022/01/07 10:29:48;;;;;;;1.17;0.60;;;5.30;99.90;;;;;;5133301;27;20171;-46
2022/01/07 10:32:23;;;;;;;2.08;0.75;;;5.50;99.90;;;;;;5121532;27;20208;-45
2022/01/07 10:35:13;;;;;;;1.52;1.00;;;5.40;99.90;;;;;;5112883;28;20176;-46
2022/01/07 10:38:00;;;;;;;1.33;0.95;;;5.40;99.90;;;;;;5112482;28;20173;-42
2022/01/07 10:40:34;;;;;;;2.00;0.95;;;5.50;99.90;;;;;;5112834;28;20266;-43
2022/01/07 10:43:20;;;;;;;1.77;1.00;;;5.50;99.90;;;;;;5112455;28;20164;-43
2022/01/07 10:45:50;;;;;;;0.73;0.63;;;5.60;99.90;;;;;;5112761;28;20330;-44
2022/01/07 10:48:18;;;;;;;1.75;1.20;;;5.70;99.90;;;;;;5112276;28;20439;-43
2022/01/07 10:50:52;;;;;;;1.52;1.10;;;5.80;99.90;;;;;;5112329;28;20232;-44
2022/01/07 10:53:20;;;;;;;1.63;1.20;;;5.90;99.90;;;;;;5112467;28;20627;-45
2022/01/07 10:56:03;;;;;;;0.60;0.60;;;5.90;99.90;;;;;;5112797;28;20171;-45
2022/01/07 10:58:29;;;;;;;1.58;1.13;;;6.00;99.90;;;;;;5112410;28;20168;-45
2022/01/07 11:00:55;;;;;;;2.67;1.10;;;5.90;99.90;;;;;;5112450;28;20191;-43
2022/01/07 11:03:21;;;;;;;1.17;1.00;;;5.90;99.90;;;;;;5093859;28;20660;-44
2022/01/07 11:05:47;;;;;;;3.97;1.30;;;5.90;99.90;;;;;;5111149;28;20253;-43
2022/01/07 11:08:15;;;;;;;2.13;1.23;;;5.90;99.90;;;;;;5112300;28;20173;-43
2022/01/07 11:10:41;;;;;;;1.42;1.17;;;5.80;99.90;;;;;;5111897;28;20199;-45
2022/01/07 11:13:09;;;;;;;1.40;1.00;;;5.80;99.90;;;;;;5111827;28;20212;-44
2022/01/07 11:15:36;;;;;;;1.02;0.80;;;5.80;99.90;;;;;;5111867;28;20164;-44
2022/01/07 11:18:02;;;;;;;4.57;1.92;;;5.80;99.90;;;;;;5111801;28;20264;-44
2022/01/07 11:20:27;;;;;;;1.95;1.17;;;5.70;99.90;;;;;;5112838;28;20239;-44
2022/01/07 11:22:54;;;;;;;1.73;1.05;;;5.70;99.90;;;;;;5112872;28;20171;-46
2022/01/07 11:25:29;;;;;;;1.67;1.15;;;5.80;99.90;;;;;;5113226;28;20243;-45
2022/01/07 11:27:57;;;;;;;3.15;1.40;;;5.80;99.90;;;;;;5112875;28;20643;-46
2022/01/07 11:30:25;;;;;;;2.33;1.20;;;5.80;99.90;;;;;;5113117;28;20256;-45
2022/01/07 11:32:53;;;;;;;3.92;1.63;;;5.80;99.90;;;;;;5112804;28;20176;-44
2022/01/07 11:35:18;;;;;;;3.40;1.45;;;5.90;99.90;;;;;;5112869;28;20566;-44
2022/01/07 11:37:44;;;;;;;3.08;1.50;;;5.90;99.90;;;;;;5112725;28;20176;-44
2022/01/07 11:40:25;;;;;;;1.27;1.05;;;6.00;99.90;;;;;;5112713;28;20165;-45
2022/01/07 11:42:51;;;;;;;3.60;1.42;;;6.00;99.90;;;;;;5112388;28;20161;-45
2022/01/07 11:45:35;;;;;;;5.32;1.90;;;5.90;99.90;;;;;;5112789;28;20169;-45
2022/01/07 11:48:17;;;;;;;3.08;1.67;;;5.90;99.90;;;;;;5112690;28;20243;-44
2022/01/07 11:51:02;;;;;;;4.65;1.42;;;5.90;99.90;;;;;;5112818;28;20547;-45
2022/01/07 11:53:40;;;;;;;5.25;2.00;;;5.90;99.90;;;;;;5093544;28;20161;-45
2022/01/07 11:56:08;;;;;;;2.05;1.67;;;5.80;99.90;;;;;;5112824;28;20584;-45
2022/01/07 11:58:55;;;;;;;2.65;1.38;;;5.80;99.90;;;;;;5112228;28;20209;-45
2022/01/07 12:01:31;;;;;;;2.58;1.70;;;5.80;99.90;;;;;;5094249;28;20224;-45
2022/01/07 12:03:59;;;;;;;4.97;1.75;;;5.80;99.90;;;;;;5113015;28;20172;-44
2022/01/07 12:06:29;;;;;;;5.45;1.52;;;5.80;99.90;;;;;;5112793;28;20245;-46
2022/01/07 12:09:05;;;;;;;5.32;1.73;;;5.80;99.90;;;;;;5112636;28;20602;-44
2022/01/07 12:11:44;;;;;;;4.10;1.85;;;5.80;99.90;;;;;;5094328;28;20694;-46
2022/01/07 12:14:14;;;;;;;5.60;1.88;;;5.80;99.90;;;;;;5112459;28;20165;-45
2022/01/07 12:16:44;;;;;;;8.27;2.15;;;5.80;99.90;;;;;;5115000;28;20180;-45
2022/01/07 12:19:23;;;;;;;3.20;1.88;;;5.80;99.90;;;;;;5116619;28;20247;-46
2022/01/07 12:21:51;;;;;;;10.90;2.47;;;5.90;99.90;;;;;;5116811;28;20168;-45
2022/01/07 12:24:25;;;;;;;13.60;4.00;;;5.90;99.90;;;;;;5116443;28;20593;-44
2022/01/07 12:27:03;;;;;;;11.50;2.50;;;5.90;99.90;;;;;;5116479;28;20580;-44
2022/01/07 12:29:33;;;;;;;6.18;2.00;;;5.90;99.90;;;;;;5116419;28;20582;-44
2022/01/07 12:31:59;;;;;;;5.68;1.90;;;5.90;99.90;;;;;;5116378;28;20264;-43
2022/01/07 12:34:31;;;;;;;5.38;1.90;;;5.90;99.90;;;;;;5116891;28;20628;-45
2022/01/07 12:37:11;;;;;;;2.85;1.70;;;6.10;99.90;;;;;;5116636;28;20169;-44
2022/01/07 12:39:42;;;;;;;5.72;2.15;;;6.00;99.90;;;;;;5116172;28;20188;-44
2022/01/07 12:42:09;;;;;;;2.97;1.83;;;6.00;99.90;;;;;;5116223;28;20164;-45
2022/01/07 12:44:37;;;;;;;8.65;2.05;;;6.00;99.90;;;;;;5097475;28;20259;-44
2022/01/07 12:47:04;;;;;;;6.93;2.67;;;6.10;99.90;;;;;;5116072;28;20516;-44
2022/01/07 12:49:34;;;;;;;9.45;2.28;;;6.10;99.90;;;;;;5116317;28;20221;-43
2022/01/07 12:52:08;;;;;;;8.23;3.53;;;6.10;99.90;;;;;;5116221;28;20208;-43
2022/01/07 12:54:34;;;;;;;8.48;3.08;;;6.00;99.90;;;;;;5116304;28;20168;-44
2022/01/07 12:57:00;;;;;;;9.02;3.25;;;5.90;99.90;;;;;;5116107;28;20624;-44
2022/01/07 12:59:26;;;;;;;3.90;1.80;;;5.90;99.90;;;;;;5116244;28;20165;-43
2022/01/07 13:01:53;;;;;;;7.65;2.50;;;5.90;99.90;;;;;;5116074;28;20180;-44
2022/01/07 13:04:22;;;;;;;6.55;2.38;;;5.90;99.90;;;;;;5115795;28;20165;-44
2022/01/07 13:06:51;;;;;;;4.10;2.17;;;5.90;99.90;;;;;;5116005;28;20328;-44